Time;durP1;ratioP1;P1;durP2;ratioP2;P2;SDS_P1;SDS_P2;PMS_P1;PMS_P2;Temp;Humidity;BMP_temperature;BMP_pressure;BME280_temperature;BME280_humidity;BME280_pressure;Samples;Min_cycle;Max_cycle;Signal;HPM_P1;HPM_P2
2021/11/27 00:00:38;;;;;;;;;;;3.70;99.90;;;;;;5008591;28;19917;-64
2021/11/27 00:03:04;;;;;;;;;;;3.70;99.90;;;;;;5008113;28;20346;-63
2021/11/27 00:05:30;;;;;;;;;;;3.70;99.90;;;;;;5008652;28;19960;-63
2021/11/27 00:07:57;;;;;;;;;;;3.70;99.90;;;;;;5026131;28;20046;-62
2021/11/27 00:10:25;;;;;;;;;;;3.70;99.90;;;;;;5027727;28;19952;-63
2021/11/27 00:12:50;;;;;;;;;;;3.80;99.90;;;;;;5012105;28;19913;-63
2021/11/27 00:15:17;;;;;;;;;;;3.80;99.90;;;;;;5008661;28;19910;-63
2021/11/27 00:17:44;;;;;;;;;;;3.80;99.90;;;;;;5008351;28;19964;-62
2021/11/27 00:20:12;;;;;;;;;;;3.80;99.90;;;;;;5008074;28;19917;-63
2021/11/27 00:22:37;;;;;;;;;;;3.90;99.90;;;;;;5007651;28;19928;-62
2021/11/27 00:25:03;;;;;;;;;;;4.00;99.90;;;;;;5002660;28;20000;-63
2021/11/27 00:27:29;;;;;;;;;;;4.00;99.90;;;;;;5013917;28;19913;-63
2021/11/27 00:29:55;;;;;;;;;;;4.00;99.90;;;;;;5008116;28;19910;-64
2021/11/27 00:32:21;;;;;;;;;;;3.90;99.90;;;;;;5007649;28;19960;-64
2021/11/27 00:34:47;;;;;;;;;;;3.90;99.90;;;;;;5006543;28;19952;-64
2021/11/27 00:37:12;;;;;;;;;;;4.00;99.90;;;;;;5007827;28;20008;-64
2021/11/27 00:39:37;;;;;;;;;;;4.00;99.90;;;;;;5009609;28;20338;-66
2021/11/27 00:42:03;;;;;;;;;;;4.10;99.90;;;;;;5006517;28;19918;-65
2021/11/27 00:44:29;;;;;;;;;;;4.10;99.90;;;;;;5006997;28;20309;-69
2021/11/27 00:46:55;;;;;;;;;;;4.30;99.90;;;;;;5006371;28;19921;-70
2021/11/27 00:49:20;;;;;;;;;;;4.20;99.90;;;;;;5006967;28;20032;-69
2021/11/27 00:51:48;;;;;;;;;;;4.20;99.90;;;;;;5006966;28;19916;-70
2021/11/27 00:54:14;;;;;;;;;;;4.10;99.90;;;;;;5006955;28;19914;-71
2021/11/27 00:56:39;;;;;;;;;;;4.10;99.90;;;;;;5007386;28;19973;-69
2021/11/27 00:59:05;;;;;;;;;;;4.10;99.90;;;;;;5007731;28;19920;-70
2021/11/27 01:01:32;;;;;;;;;;;4.10;99.90;;;;;;5007632;28;19917;-69
2021/11/27 01:03:58;;;;;;;;;;;4.20;99.90;;;;;;5009013;28;20192;-68
2021/11/27 01:06:24;;;;;;;;;;;4.10;99.90;;;;;;5009351;28;19917;-70
2021/11/27 01:08:51;;;;;;;;;;;4.10;99.90;;;;;;5028252;28;20337;-71
2021/11/27 01:11:19;;;;;;;;;;;4.20;99.90;;;;;;5028278;28;19909;-69
2021/11/27 01:13:46;;;;;;;;;;;4.30;99.90;;;;;;5029053;28;19999;-67
2021/11/27 01:16:11;;;;;;;;;;;4.40;99.90;;;;;;5029705;28;19932;-71
2021/11/27 01:18:38;;;;;;;;;;;4.50;99.90;;;;;;5010395;28;20385;-70
2021/11/27 01:21:06;;;;;;;;;;;4.40;99.90;;;;;;5016711;28;19914;-71
2021/11/27 01:23:31;;;;;;;;;;;4.30;99.90;;;;;;5026202;28;19917;-70
2021/11/27 01:25:57;;;;;;;;;;;4.20;99.90;;;;;;5020505;28;19913;-69
2021/11/27 01:28:24;;;;;;;;;;;4.30;99.90;;;;;;5012857;28;20341;-71
2021/11/27 01:30:51;;;;;;;;;;;4.30;99.90;;;;;;5012251;28;19910;-70
2021/11/27 01:33:16;;;;;;;;;;;4.40;99.90;;;;;;5011957;28;19957;-69
2021/11/27 01:35:42;;;;;;;;;;;4.40;99.90;;;;;;5011813;28;19968;-72
2021/11/27 01:38:08;;;;;;;;;;;4.40;99.90;;;;;;5011867;28;19925;-70
2021/11/27 01:40:34;;;;;;;;;;;4.40;99.90;;;;;;5026583;28;19910;-71
2021/11/27 01:42:59;;;;;;;;;;;4.40;99.90;;;;;;5025986;28;20387;-69
2021/11/27 01:45:25;;;;;;;;;;;4.30;99.90;;;;;;5011331;28;19913;-72
2021/11/27 01:47:52;;;;;;;;;;;4.20;99.90;;;;;;5009851;28;19972;-72
2021/11/27 01:50:19;;;;;;;;;;;4.20;99.90;;;;;;5020116;28;19998;-70
2021/11/27 01:52:44;;;;;;;;;;;4.10;99.90;;;;;;5016225;28;19913;-71
2021/11/27 01:55:10;;;;;;;;;;;4.20;99.90;;;;;;5030667;28;19942;-71
2021/11/27 01:57:35;;;;;;;;;;;4.20;99.90;;;;;;5015277;28;19925;-72
2021/11/27 02:00:02;;;;;;;;;;;4.20;99.90;;;;;;5030583;28;19913;-73
2021/11/27 02:02:28;;;;;;;;;;;4.20;99.90;;;;;;5036548;28;19924;-72
2021/11/27 02:04:53;;;;;;;;;;;4.30;99.90;;;;;;5010781;28;19922;-71
2021/11/27 02:07:19;;;;;;;;;;;4.40;99.90;;;;;;5018514;28;20011;-72
2021/11/27 02:09:44;;;;;;;;;;;4.40;99.90;;;;;;5014994;28;19940;-71
2021/11/27 02:12:11;;;;;;;;;;;4.40;99.90;;;;;;5017823;28;20301;-71
2021/11/27 02:14:37;;;;;;;;;;;4.50;99.90;;;;;;5014716;28;19914;-69
2021/11/27 02:17:03;;;;;;;;;;;4.50;99.90;;;;;;5014797;28;20804;-72
2021/11/27 02:19:29;;;;;;;;;;;4.40;99.90;;;;;;5030360;28;19996;-71
2021/11/27 02:21:54;;;;;;;;;;;4.60;99.90;;;;;;5021972;28;20374;-70
2021/11/27 02:24:20;;;;;;;;;;;4.60;99.90;;;;;;5024109;28;19971;-71
2021/11/27 02:26:46;;;;;;;;;;;4.60;99.90;;;;;;5030477;28;20008;-72
2021/11/27 02:29:17;;;;;;;;;;;4.70;99.90;;;;;;5038785;28;19913;-71
2021/11/27 02:31:42;;;;;;;;;;;4.70;99.90;;;;;;5010142;28;19913;-71
2021/11/27 02:34:09;;;;;;;;;;;4.80;99.90;;;;;;5021674;28;20225;-72
2021/11/27 02:36:35;;;;;;;;;;;4.60;99.90;;;;;;5030703;28;20284;-71
2021/11/27 02:39:02;;;;;;;;;;;4.60;99.90;;;;;;5018884;28;19988;-73
2021/11/27 02:41:28;;;;;;;;;;;4.70;99.90;;;;;;5010249;28;19921;-72
2021/11/27 02:43:53;;;;;;;;;;;4.70;99.90;;;;;;5014924;28;20008;-72
2021/11/27 02:46:19;;;;;;;;;;;4.70;99.90;;;;;;5018648;28;19921;-70
2021/11/27 02:48:44;;;;;;;;;;;4.70;99.90;;;;;;5016793;28;19914;-72
2021/11/27 02:51:10;;;;;;;;;;;4.70;99.90;;;;;;5023742;28;19945;-71
2021/11/27 02:53:35;;;;;;;;;;;4.70;99.90;;;;;;5009824;28;19917;-71
2021/11/27 02:56:02;;;;;;;;;;;4.80;99.90;;;;;;5017749;28;19910;-71
2021/11/27 02:58:28;;;;;;;;;;;4.90;99.90;;;;;;5030254;28;20006;-71
2021/11/27 03:00:54;;;;;;;;;;;4.90;99.90;;;;;;5009637;28;20386;-73
2021/11/27 03:03:19;;;;;;;;;;;5.00;99.90;;;;;;5015061;28;19921;-71
2021/11/27 03:05:45;;;;;;;;;;;5.00;99.90;;;;;;5038225;28;19913;-69
2021/11/27 03:08:11;;;;;;;;;;;4.90;99.90;;;;;;5013359;28;19909;-71
2021/11/27 03:10:36;;;;;;;;;;;4.80;99.90;;;;;;5010354;28;19909;-71
2021/11/27 03:13:02;;;;;;;;;;;4.80;99.90;;;;;;5009634;28;19921;-73
2021/11/27 03:15:27;;;;;;;;;;;4.80;99.90;;;;;;5010083;28;19921;-73
2021/11/27 03:17:53;;;;;;;;;;;4.80;99.90;;;;;;5009175;28;19988;-71
2021/11/27 03:20:19;;;;;;;;;;;4.80;99.90;;;;;;5024294;28;19909;-71
2021/11/27 03:22:44;;;;;;;;;;;4.80;99.90;;;;;;5008894;28;19979;-71
2021/11/27 03:25:10;;;;;;;;;;;4.80;99.90;;;;;;5019912;28;19971;-72
2021/11/27 03:27:37;;;;;;;;;;;4.70;99.90;;;;;;5016172;28;20400;-72
2021/11/27 03:30:03;;;;;;;;;;;4.70;99.90;;;;;;5008279;28;19921;-72
2021/11/27 03:32:29;;;;;;;;;;;4.80;99.90;;;;;;5009388;28;19925;-72
2021/11/27 03:34:54;;;;;;;;;;;4.80;99.90;;;;;;5007973;28;19922;-72
2021/11/27 03:37:20;;;;;;;;;;;4.90;99.90;;;;;;5025165;28;19960;-71
2021/11/27 03:39:45;;;;;;;;;;;4.90;99.90;;;;;;5010568;28;19917;-71
2021/11/27 03:42:12;;;;;;;;;;;4.90;99.90;;;;;;5010614;28;19914;-71
2021/11/27 03:44:37;;;;;;;;;;;4.80;99.90;;;;;;5009241;28;19959;-72
2021/11/27 03:47:03;;;;;;;;;;;4.70;99.90;;;;;;5024453;28;19952;-72
2021/11/27 03:49:29;;;;;;;;;;;4.60;99.90;;;;;;5008940;28;19909;-71
2021/11/27 03:51:55;;;;;;;;;;;4.50;99.90;;;;;;5008994;28;19913;-72
2021/11/27 03:54:21;;;;;;;;;;;4.60;99.90;;;;;;5009307;28;19917;-72
2021/11/27 03:56:46;;;;;;;;;;;4.50;99.90;;;;;;5012157;28;20213;-72
2021/11/27 03:59:12;;;;;;;;;;;4.50;99.90;;;;;;5009497;28;19917;-72
2021/11/27 04:01:38;;;;;;;;;;;4.50;99.90;;;;;;5009055;28;19917;-71
2021/11/27 04:04:04;;;;;;;;;;;4.50;99.90;;;;;;5008799;28;19918;-72
2021/11/27 04:06:29;;;;;;;;;;;4.50;99.90;;;;;;5015687;28;19964;-72
2021/11/27 04:08:58;;;;;;;;;;;4.60;99.90;;;;;;5028281;28;19959;-72
2021/11/27 04:11:23;;;;;;;;;;;4.50;99.90;;;;;;5024152;28;20382;-71
2021/11/27 04:13:49;;;;;;;;;;;4.50;99.90;;;;;;5008214;28;20063;-72
2021/11/27 04:16:14;;;;;;;;;;;4.60;99.90;;;;;;5008837;28;19910;-71
2021/11/27 04:18:40;;;;;;;;;;;4.60;99.90;;;;;;5008604;28;19922;-70
2021/11/27 04:21:05;;;;;;;;;;;4.60;99.90;;;;;;5027330;28;19952;-73
2021/11/27 04:23:31;;;;;;;;;;;4.70;99.90;;;;;;5016669;28;19913;-72
2021/11/27 04:25:56;;;;;;;;;;;4.50;99.90;;;;;;5012410;28;19970;-70
2021/11/27 04:28:22;;;;;;;;;;;4.60;99.90;;;;;;5009519;28;20267;-72
2021/11/27 04:30:47;;;;;;;;;;;4.50;99.90;;;;;;5009762;28;19921;-72
2021/11/27 04:33:13;;;;;;;;;;;4.50;99.90;;;;;;5010498;28;19917;-71
2021/11/27 04:35:39;;;;;;;;;;;4.50;99.90;;;;;;5010222;28;20012;-71
2021/11/27 04:38:05;;;;;;;;;;;4.50;99.90;;;;;;5024004;28;19955;-71
2021/11/27 04:40:31;;;;;;;;;;;4.40;99.90;;;;;;5008282;28;20000;-72
2021/11/27 04:42:58;;;;;;;;;;;4.40;99.90;;;;;;5008677;28;19935;-71
2021/11/27 04:45:23;;;;;;;;;;;4.40;99.90;;;;;;5007590;28;19909;-72
2021/11/27 04:47:49;;;;;;;;;;;4.40;99.90;;;;;;5006945;28;20469;-73
2021/11/27 04:50:15;;;;;;;;;;;4.50;99.90;;;;;;5015584;28;20209;-72
2021/11/27 04:52:41;;;;;;;;;;;4.50;99.90;;;;;;5014479;28;19910;-72
2021/11/27 04:55:07;;;;;;;;;;;4.40;99.90;;;;;;5011952;28;20369;-71
2021/11/27 04:57:33;;;;;;;;;;;4.40;99.90;;;;;;5017145;28;20008;-71
2021/11/27 04:59:59;;;;;;;;;;;4.40;99.90;;;;;;5007723;28;20012;-71
2021/11/27 05:02:25;;;;;;;;;;;4.40;99.90;;;;;;5008517;28;19910;-71
2021/11/27 05:04:50;;;;;;;;;;;4.40;99.90;;;;;;5008003;28;19918;-72
2021/11/27 05:07:16;;;;;;;;;;;4.50;99.90;;;;;;5012254;28;20274;-72
2021/11/27 05:09:41;;;;;;;;;;;4.40;99.90;;;;;;5007518;28;19916;-73
2021/11/27 05:12:07;;;;;;;;;;;4.30;99.90;;;;;;5022854;28;20051;-70
2021/11/27 05:14:32;;;;;;;;;;;4.20;99.90;;;;;;5008068;28;19909;-71
2021/11/27 05:16:58;;;;;;;;;;;4.20;99.90;;;;;;5007858;28;19918;-71
2021/11/27 05:19:23;;;;;;;;;;;4.30;99.90;;;;;;5006613;28;19920;-70
2021/11/27 05:21:49;;;;;;;;;;;4.20;99.90;;;;;;5008204;28;19921;-70
2021/11/27 05:24:14;;;;;;;;;;;4.20;99.90;;;;;;5010280;28;19924;-72
2021/11/27 05:26:40;;;;;;;;;;;4.20;99.90;;;;;;5023848;28;19921;-73
2021/11/27 05:29:05;;;;;;;;;;;4.20;99.90;;;;;;5007449;28;19914;-73
2021/11/27 05:31:31;;;;;;;;;;;4.20;99.90;;;;;;5007982;28;20285;-72
2021/11/27 05:36:29;;;;;;;;;;;4.20;99.90;;;;;;5010964;28;19913;-72
2021/11/27 05:38:55;;;;;;;;;;;4.20;99.90;;;;;;5007722;28;19913;-72
2021/11/27 05:41:20;;;;;;;;;;;4.20;99.90;;;;;;5007317;28;20360;-71
2021/11/27 05:43:46;;;;;;;;;;;4.20;99.90;;;;;;5008476;28;20294;-70
2021/11/27 05:46:11;;;;;;;;;;;4.10;99.90;;;;;;5008484;28;19909;-71
2021/11/27 05:48:37;;;;;;;;;;;4.10;99.90;;;;;;5007737;28;19914;-71
2021/11/27 05:51:03;;;;;;;;;;;4.10;99.90;;;;;;5008177;28;20384;-72
2021/11/27 05:53:28;;;;;;;;;;;4.10;99.90;;;;;;5007753;28;19944;-72
2021/11/27 05:55:54;;;;;;;;;;;4.20;99.90;;;;;;5016309;28;20343;-71
2021/11/27 05:58:20;;;;;;;;;;;4.20;99.90;;;;;;5010960;28;19944;-70
2021/11/27 06:00:46;;;;;;;;;;;4.20;99.90;;;;;;5019318;28;19916;-71
2021/11/27 06:03:12;;;;;;;;;;;4.10;99.90;;;;;;5028042;28;20337;-71
2021/11/27 06:05:37;;;;;;;;;;;4.10;99.90;;;;;;5027564;28;19913;-71
2021/11/27 06:08:03;;;;;;;;;;;4.00;99.90;;;;;;5011565;28;19917;-70
2021/11/27 06:10:29;;;;;;;;;;;4.00;99.90;;;;;;5010859;28;20411;-70
2021/11/27 06:12:54;;;;;;;;;;;4.10;99.90;;;;;;5011297;28;19967;-71
2021/11/27 06:15:20;;;;;;;;;;;4.00;99.90;;;;;;5013088;28;20429;-72
2021/11/27 06:17:45;;;;;;;;;;;4.00;99.90;;;;;;5012964;28;19923;-71
2021/11/27 06:20:11;;;;;;;;;;;4.10;99.90;;;;;;5014087;28;20389;-71
2021/11/27 06:22:36;;;;;;;;;;;4.10;99.90;;;;;;5013686;28;19922;-72
2021/11/27 06:25:03;;;;;;;;;;;4.00;99.90;;;;;;5009542;28;19914;-71
2021/11/27 06:27:28;;;;;;;;;;;4.00;99.90;;;;;;5014996;28;19917;-73
2021/11/27 06:29:54;;;;;;;;;;;3.90;99.90;;;;;;5012734;28;19913;-72
2021/11/27 06:32:23;;;;;;;;;;;4.00;99.90;;;;;;5009967;28;19909;-71
2021/11/27 06:34:52;;;;;;;;;;;4.10;99.90;;;;;;5015845;28;19910;-70
2021/11/27 06:37:21;;;;;;;;;;;4.10;99.90;;;;;;5021560;28;20336;-68
2021/11/27 06:39:47;;;;;;;;;;;4.10;99.90;;;;;;5037761;28;19970;-69
2021/11/27 06:42:13;;;;;;;;;;;3.90;99.90;;;;;;5036711;28;20177;-70
2021/11/27 06:44:46;;;;;;;;;;;3.90;99.90;;;;;;5016401;28;19913;-71
2021/11/27 06:47:15;;;;;;;;;;;3.80;99.90;;;;;;5011449;28;20338;-70
2021/11/27 06:49:41;;;;;;;;;;;3.70;99.90;;;;;;5020423;28;19909;-74
2021/11/27 06:52:07;;;;;;;;;;;3.70;99.90;;;;;;5030175;28;19910;-71
2021/11/27 06:54:32;;;;;;;;;;;3.70;99.90;;;;;;5030290;28;20000;-71
2021/11/27 06:56:58;;;;;;;;;;;3.60;99.90;;;;;;5018587;28;20301;-70
2021/11/27 06:59:23;;;;;;;;;;;3.60;99.90;;;;;;5010127;28;19991;-71
2021/11/27 07:01:49;;;;;;;;;;;3.70;99.90;;;;;;5010220;28;19920;-71
2021/11/27 07:04:16;;;;;;;;;;;3.80;99.90;;;;;;5009809;28;20416;-72
2021/11/27 07:06:42;;;;;;;;;;;3.90;99.90;;;;;;5010109;28;19920;-71
2021/11/27 07:09:07;;;;;;;;;;;3.80;99.90;;;;;;5007746;28;20012;-72
2021/11/27 07:11:33;;;;;;;;;;;3.80;99.90;;;;;;5008174;28;20404;-72
2021/11/27 07:13:58;;;;;;;;;;;3.70;99.90;;;;;;5005417;28;19989;-70
2021/11/27 07:16:23;;;;;;;;;;;3.60;99.90;;;;;;5008127;28;20000;-71
2021/11/27 07:18:49;;;;;;;;;;;3.60;99.90;;;;;;5010883;28;19917;-70
2021/11/27 07:21:14;;;;;;;;;;;3.70;99.90;;;;;;5012789;28;19910;-71
2021/11/27 07:23:40;;;;;;;;;;;3.80;99.90;;;;;;5011974;28;20366;-72
2021/11/27 07:26:05;;;;;;;;;;;3.70;99.90;;;;;;5027469;28;20452;-70
2021/11/27 07:28:31;;;;;;;;;;;3.70;99.90;;;;;;5007026;28;19952;-71
2021/11/27 07:30:56;;;;;;;;;;;3.70;99.90;;;;;;5011745;28;19952;-70
2021/11/27 07:33:22;;;;;;;;;;;3.80;99.90;;;;;;5013589;28;19909;-71
2021/11/27 07:35:49;;;;;;;;;;;3.90;99.90;;;;;;5011947;28;20387;-71
2021/11/27 07:38:15;;;;;;;;;;;3.80;99.90;;;;;;5014124;28;19913;-69
2021/11/27 07:40:41;;;;;;;;;;;3.90;99.90;;;;;;5007716;28;20440;-72
2021/11/27 07:43:06;;;;;;;;;;;4.00;99.90;;;;;;5011769;28;19913;-70
2021/11/27 07:45:34;;;;;;;;;;;4.10;99.90;;;;;;5008728;28;19992;-72
2021/11/27 07:47:59;;;;;;;;;;;4.10;99.90;;;;;;5009321;28;19921;-71
2021/11/27 07:50:25;;;;;;;;;;;4.10;99.90;;;;;;5009498;28;20079;-70
2021/11/27 07:52:50;;;;;;;;;;;4.20;99.90;;;;;;5008515;28;19910;-71
2021/11/27 07:55:16;;;;;;;;;;;4.20;99.90;;;;;;5010397;28;19909;-71
2021/11/27 07:57:41;;;;;;;;;;;4.20;99.90;;;;;;5008666;28;19928;-72
2021/11/27 08:00:07;;;;;;;;;;;4.20;99.90;;;;;;5008921;28;19914;-71
2021/11/27 08:02:33;;;;;;;;;;;4.20;99.90;;;;;;5009613;28;19953;-71
2021/11/27 08:04:58;;;;;;;;;;;4.20;99.90;;;;;;5000201;28;19983;-71
2021/11/27 08:07:24;;;;;;;;;;;4.20;99.90;;;;;;5010034;28;20097;-72
2021/11/27 08:09:49;;;;;;;;;;;4.30;99.90;;;;;;5011792;28;19913;-71
2021/11/27 08:12:15;;;;;;;;;;;4.30;99.90;;;;;;5010339;28;20429;-70
2021/11/27 08:14:41;;;;;;;;;;;4.20;99.90;;;;;;5009509;28;20293;-71
2021/11/27 08:17:07;;;;;;;;;;;4.30;99.90;;;;;;5018000;28;20004;-70
2021/11/27 08:19:32;;;;;;;;;;;4.20;99.90;;;;;;5022512;28;19924;-70
2021/11/27 08:21:58;;;;;;;;;;;4.10;99.90;;;;;;5010011;28;20048;-70
2021/11/27 08:24:25;;;;;;;;;;;4.20;99.90;;;;;;5011380;28;19913;-71
2021/11/27 08:26:50;;;;;;;;;;;4.30;99.90;;;;;;5024010;28;20390;-70
2021/11/27 08:29:17;;;;;;;;;;;4.40;99.90;;;;;;5010863;28;20016;-71
2021/11/27 08:31:43;;;;;;;;;;;4.20;99.90;;;;;;5007956;28;19936;-71
2021/11/27 08:34:08;;;;;;;;;;;4.10;99.90;;;;;;5011950;28;20370;-71
2021/11/27 08:36:34;;;;;;;;;;;4.10;99.90;;;;;;5007516;28;20012;-68
2021/11/27 08:38:59;;;;;;;;;;;4.10;99.90;;;;;;5008937;28;20159;-71
2021/11/27 08:41:25;;;;;;;;;;;4.20;99.90;;;;;;5013161;28;19910;-70
2021/11/27 08:43:50;;;;;;;;;;;4.40;99.90;;;;;;5014435;28;19971;-70
2021/11/27 08:46:16;;;;;;;;;;;4.30;99.90;;;;;;5010818;28;20529;-70
2021/11/27 08:48:41;;;;;;;;;;;4.30;99.90;;;;;;5011763;28;19920;-70
2021/11/27 08:51:08;;;;;;;;;;;4.20;99.90;;;;;;5011021;28;20364;-69
2021/11/27 08:53:34;;;;;;;;;;;4.10;99.90;;;;;;5009953;28;19967;-70
2021/11/27 08:55:59;;;;;;;;;;;4.00;99.90;;;;;;5016309;28;19989;-71
2021/11/27 08:58:25;;;;;;;;;;;4.10;99.90;;;;;;5009941;28;20003;-70
2021/11/27 09:00:51;;;;;;;;;;;4.20;99.90;;;;;;5008224;28;20554;-70
2021/11/27 09:03:17;;;;;;;;;;;4.20;99.90;;;;;;5009058;28;19983;-71
2021/11/27 09:05:42;;;;;;;;;;;4.20;99.90;;;;;;5008788;28;19913;-71
2021/11/27 09:08:08;;;;;;;;;;;4.20;99.90;;;;;;5008940;28;19916;-71
2021/11/27 09:10:33;;;;;;;;;;;4.30;99.90;;;;;;5008041;28;19910;-71
2021/11/27 09:12:59;;;;;;;;;;;4.30;99.90;;;;;;5008230;28;19945;-71
2021/11/27 09:15:25;;;;;;;;;;;4.50;99.90;;;;;;5009894;28;19909;-69
2021/11/27 09:17:50;;;;;;;;;;;4.50;99.90;;;;;;5007761;28;19918;-70
2021/11/27 09:20:15;;;;;;;;;;;4.50;99.90;;;;;;5008248;28;19960;-71
2021/11/27 09:22:41;;;;;;;;;;;4.50;99.90;;;;;;5007057;28;19991;-71
2021/11/27 09:25:07;;;;;;;;;;;4.60;99.90;;;;;;5009544;28;19914;-71
2021/11/27 09:27:32;;;;;;;;;;;4.60;99.90;;;;;;5007772;28;19909;-72
2021/11/27 09:29:58;;;;;;;;;;;4.60;99.90;;;;;;5009388;28;19920;-71
2021/11/27 09:32:23;;;;;;;;;;;4.40;99.90;;;;;;5007521;28;19913;-71
2021/11/27 09:34:49;;;;;;;;;;;4.40;99.90;;;;;;5006801;28;20330;-72
2021/11/27 09:37:16;;;;;;;;;;;4.50;99.90;;;;;;5007439;28;20408;-71
2021/11/27 09:39:43;;;;;;;;;;;4.50;99.90;;;;;;5007787;28;20419;-70
2021/11/27 09:42:12;;;;;;;;;;;4.50;99.90;;;;;;5008045;28;19921;-70
2021/11/27 09:44:38;;;;;;;;;;;4.60;99.90;;;;;;5015955;28;19909;-70
2021/11/27 09:47:03;;;;;;;;;;;4.60;99.90;;;;;;5016971;28;19955;-72
2021/11/27 09:49:30;;;;;;;;;;;4.50;99.90;;;;;;5013334;28;19976;-71
2021/11/27 09:51:55;;;;;;;;;;;4.40;99.90;;;;;;5012516;28;19917;-71
2021/11/27 09:54:22;;;;;;;;;;;4.50;99.90;;;;;;5014970;28;19940;-71
2021/11/27 09:56:48;;;;;;;;;;;4.40;99.90;;;;;;5015722;28;19914;-70
2021/11/27 09:59:14;;;;;;;;;;;4.40;99.90;;;;;;5014812;28;19967;-70
2021/11/27 10:01:45;;;;;;;;;;;4.50;99.90;;;;;;5035696;28;20023;-69
2021/11/27 10:04:11;;;;;;;;;;;4.60;99.90;;;;;;5017107;28;19921;-70
2021/11/27 10:06:44;;;;;;;;;;;4.60;99.90;;;;;;5023469;28;19909;-71
2021/11/27 10:09:11;;;;;;;;;;;4.70;99.90;;;;;;5045444;28;20405;-70
2021/11/27 10:11:37;;;;;;;;;;;4.60;99.90;;;;;;5016297;28;19910;-69
2021/11/27 10:14:03;;;;;;;;;;;4.50;99.90;;;;;;5014496;28;19917;-70
2021/11/27 10:16:31;;;;;;;;;;;4.40;99.90;;;;;;5017097;28;20285;-70
2021/11/27 10:19:11;;;;;;;;;;;4.50;99.90;;;;;;5014184;28;19921;-70
2021/11/27 10:21:38;;;;;;;;;;;4.70;99.90;;;;;;5012003;28;19921;-69
2021/11/27 10:24:23;;;;;;;;;;;4.70;99.90;;;;;;5008790;28;19913;-70
2021/11/27 10:26:50;;;;;;;;;;;4.80;99.90;;;;;;5008743;28;19913;-71
2021/11/27 10:29:15;;;;;;;;;;;4.70;99.90;;;;;;5011130;28;19925;-70
2021/11/27 10:31:42;;;;;;;;;;;4.60;99.90;;;;;;5013651;28;19928;-71
2021/11/27 10:34:07;;;;;;;;;;;4.60;99.90;;;;;;5009674;28;19967;-70
2021/11/27 10:36:33;;;;;;;;;;;4.50;99.90;;;;;;5011219;28;19914;-70
2021/11/27 10:39:05;;;;;;;;;;;4.50;99.90;;;;;;5009537;28;19921;-70
2021/11/27 10:41:36;;;;;;;;;;;4.40;99.90;;;;;;5009706;28;20036;-70
2021/11/27 10:44:03;;;;;;;;;;;4.40;99.90;;;;;;5023698;28;19967;-71
2021/11/27 10:46:30;;;;;;;;;;;4.40;99.90;;;;;;5009666;28;19917;-71
2021/11/27 10:48:56;;;;;;;;;;;4.50;99.90;;;;;;5009615;28;19913;-72
2021/11/27 10:51:22;;;;;;;;;;;4.20;99.90;;;;;;5012851;28;20449;-73
2021/11/27 10:53:59;;;;;;;;;;;4.20;99.90;;;;;;5008063;28;19913;-70
2021/11/27 10:56:38;;;;;;;;;;;4.10;99.90;;;;;;5012022;28;20440;-72
2021/11/27 10:59:05;;;;;;;;;;;4.00;99.90;;;;;;5009387;28;20245;-71
2021/11/27 11:01:30;;;;;;;;;;;4.10;99.90;;;;;;5008095;28;19917;-71
2021/11/27 11:04:12;;;;;;;;;;;4.10;99.90;;;;;;5008198;28;19917;-72
2021/11/27 11:06:38;;;;;;;;;;;4.20;99.90;;;;;;5010592;28;19925;-71
2021/11/27 11:09:03;;;;;;;;;;;4.30;99.90;;;;;;5008750;28;19921;-71
2021/11/27 11:11:29;;;;;;;;;;;4.20;99.90;;;;;;5009580;28;19920;-70
2021/11/27 11:13:56;;;;;;;;;;;4.20;99.90;;;;;;5009957;28;20007;-71
2021/11/27 11:16:23;;;;;;;;;;;4.20;99.90;;;;;;5011467;28;19920;-71
2021/11/27 11:18:51;;;;;;;;;;;4.10;99.90;;;;;;5011168;28;20015;-70
2021/11/27 11:21:18;;;;;;;;;;;4.10;99.90;;;;;;5011278;28;19985;-73
2021/11/27 11:23:44;;;;;;;;;;;4.20;99.90;;;;;;5015079;28;19913;-72
2021/11/27 11:26:11;;;;;;;;;;;4.20;99.90;;;;;;5013758;28;19964;-69
2021/11/27 11:28:39;;;;;;;;;;;4.20;99.90;;;;;;5010490;28;19960;-70
2021/11/27 11:31:09;;;;;;;;;;;4.30;99.90;;;;;;5010443;28;19913;-70
2021/11/27 11:33:36;;;;;;;;;;;4.20;99.90;;;;;;5010754;28;20314;-71
2021/11/27 11:36:02;;;;;;;;;;;4.30;99.90;;;;;;5014842;28;20103;-71
2021/11/27 11:38:28;;;;;;;;;;;4.30;99.90;;;;;;5015925;28;19914;-70
2021/11/27 11:40:54;;;;;;;;;;;4.30;99.90;;;;;;5023941;28;19921;-73
2021/11/27 11:43:20;;;;;;;;;;;4.40;99.90;;;;;;5009139;28;20240;-71
2021/11/27 11:45:45;;;;;;;;;;;4.50;99.90;;;;;;5010617;28;20056;-70
2021/11/27 11:48:11;;;;;;;;;;;4.60;99.90;;;;;;5010112;28;19924;-71
2021/11/27 11:50:41;;;;;;;;;;;4.60;99.90;;;;;;5008883;28;19932;-72
2021/11/27 11:53:13;;;;;;;;;;;4.70;99.90;;;;;;5009981;28;19954;-71
2021/11/27 11:55:52;;;;;;;;;;;4.70;99.90;;;;;;5009927;28;19937;-71
2021/11/27 11:58:29;;;;;;;;;;;4.80;99.90;;;;;;5008098;28;19921;-70
2021/11/27 12:01:03;;;;;;;;;;;4.90;99.90;;;;;;5009428;28;20303;-71
2021/11/27 12:03:36;;;;;;;;;;;4.90;99.90;;;;;;5009371;28;19968;-69
2021/11/27 12:06:06;;;;;;;;;;;4.90;99.90;;;;;;5012609;28;19913;-71
2021/11/27 12:08:51;;;;;;;;;;;4.90;99.90;;;;;;5011596;28;20004;-71
2021/11/27 12:11:35;;;;;;;;;;;4.90;99.90;;;;;;5007369;28;19967;-72
2021/11/27 12:14:01;;;;;;;;;;;4.80;99.90;;;;;;5003270;28;19917;-69
2021/11/27 12:16:27;;;;;;;;;;;4.80;99.90;;;;;;5010109;28;19910;-71
2021/11/27 12:19:04;;;;;;;;;;;4.70;99.90;;;;;;5008436;28;19917;-72
2021/11/27 12:21:30;;;;;;;;;;;4.60;99.90;;;;;;5008639;28;19909;-72
2021/11/27 12:23:55;;;;;;;;;;;4.50;99.90;;;;;;5023062;28;20350;-71
2021/11/27 12:26:22;;;;;;;;;;;4.30;99.90;;;;;;5028415;28;19909;-72
2021/11/27 12:28:50;;;;;;;;;;;4.20;99.90;;;;;;5015867;28;20304;-70
2021/11/27 12:31:23;;;;;;;;;;;4.10;99.90;;;;;;5021475;28;20337;-72
2021/11/27 12:33:48;;;;;;;;;;;4.00;99.90;;;;;;5008834;28;19914;-72
2021/11/27 12:36:26;;;;;;;;;;;3.80;99.90;;;;;;5008381;28;20185;-71
2021/11/27 12:39:11;;;;;;;;;;;3.80;99.90;;;;;;5008378;28;19959;-71
2021/11/27 12:41:40;;;;;;;;;;;3.70;99.90;;;;;;5008986;28;20279;-70
2021/11/27 12:44:13;;;;;;;;;;;3.70;99.90;;;;;;5008299;28;19920;-72
2021/11/27 12:46:47;;;;;;;;;;;3.60;99.90;;;;;;5007873;28;20345;-73
2021/11/27 12:49:31;;;;;;;;;;;3.60;99.90;;;;;;5008981;28;19914;-71
2021/11/27 12:52:28;;;;;;;;;;;3.60;99.90;;;;;;5008478;28;20386;-72
2021/11/27 12:54:58;;;;;;;;;;;3.60;99.90;;;;;;5021965;28;19960;-71
2021/11/27 12:57:24;;;;;;;;;;;3.60;99.90;;;;;;5008325;28;19918;-72
2021/11/27 13:00:03;;;;;;;;;;;3.70;99.90;;;;;;5004185;28;20209;-74
2021/11/27 13:02:29;;;;;;;;;;;3.70;99.90;;;;;;5004028;28;19914;-74
2021/11/27 13:04:55;;;;;;;;;;;3.80;99.90;;;;;;5020395;28;20209;-73
2021/11/27 13:07:27;;;;;;;;;;;3.90;99.90;;;;;;5006939;28;20352;-72
2021/11/27 13:09:54;;;;;;;;;;;4.00;99.90;;;;;;5004014;28;20282;-71
2021/11/27 13:12:20;;;;;;;;;;;4.00;99.90;;;;;;5005971;28;20334;-71
2021/11/27 13:14:45;;;;;;;;;;;4.10;99.90;;;;;;5005819;28;20375;-71
2021/11/27 13:17:12;;;;;;;;;;;4.20;99.90;;;;;;5007967;28;19909;-71
2021/11/27 13:19:38;;;;;;;;;;;4.30;99.90;;;;;;5008721;28;19970;-71
2021/11/27 13:22:08;;;;;;;;;;;4.40;99.90;;;;;;5002854;28;19914;-73
2021/11/27 13:24:38;;;;;;;;;;;4.40;99.90;;;;;;5018953;28;20407;-70
2021/11/27 13:27:04;;;;;;;;;;;4.40;99.90;;;;;;5014111;28;19921;-71
2021/11/27 13:29:30;;;;;;;;;;;4.50;99.90;;;;;;5032636;28;19913;-72
2021/11/27 13:31:55;;;;;;;;;;;4.50;99.90;;;;;;5024061;28;20121;-76
2021/11/27 13:34:22;;;;;;;;;;;4.50;99.90;;;;;;5012011;28;19914;-73
2021/11/27 13:36:53;;;;;;;;;;;4.50;99.90;;;;;;5023588;28;19956;-71
2021/11/27 13:39:21;;;;;;;;;;;4.60;99.90;;;;;;5030817;28;19913;-71
2021/11/27 13:41:52;;;;;;;;;;;4.50;99.90;;;;;;5045987;28;20008;-64
2021/11/27 13:44:24;;;;;;;;;;;4.60;99.90;;;;;;5013843;28;20526;-62
2021/11/27 13:46:54;;;;;;;;;;;4.60;99.90;;;;;;5011173;28;19922;-62
2021/11/27 13:49:27;;;;;;;;;;;4.50;99.90;;;;;;5011868;28;19910;-63
2021/11/27 13:51:53;;;;;;;;;;;4.50;99.90;;;;;;5011658;28;19909;-62
2021/11/27 13:54:19;;;;;;;;;;;4.40;99.90;;;;;;5010509;28;20413;-63
2021/11/27 13:56:44;;;;;;;;;;;4.30;99.90;;;;;;5011173;28;19910;-64
2021/11/27 13:59:11;;;;;;;;;;;4.40;99.90;;;;;;5011225;28;19913;-62
2021/11/27 14:01:36;;;;;;;;;;;4.40;99.90;;;;;;5010788;28;20071;-62
2021/11/27 14:04:09;;;;;;;;;;;4.40;99.90;;;;;;5015635;28;20008;-65
2021/11/27 14:06:34;;;;;;;;;;;4.30;99.90;;;;;;5014944;28;20004;-62
2021/11/27 14:09:04;;;;;;;;;;;4.20;99.90;;;;;;5010408;28;20016;-63
2021/11/27 14:11:30;;;;;;;;;;;4.10;99.90;;;;;;5010652;28;20161;-63
2021/11/27 14:14:03;;;;;;;;;;;4.10;99.90;;;;;;5010437;28;19909;-64
2021/11/27 14:16:29;;;;;;;;;;;4.00;99.90;;;;;;5016064;28;19914;-64
2021/11/27 14:19:11;;;;;;;;;;;4.00;99.90;;;;;;5010067;28;19964;-66
2021/11/27 14:21:38;;;;;;;;;;;4.10;99.90;;;;;;5010611;28;20354;-64
2021/11/27 14:24:08;;;;;;;;;;;4.10;99.90;;;;;;5011467;28;19909;-66
2021/11/27 14:26:39;;;;;;;;;;;4.00;99.90;;;;;;5029693;28;19964;-65
2021/11/27 14:29:04;;;;;;;;;;;3.80;99.90;;;;;;5030264;28;20406;-64
2021/11/27 14:31:31;;;;;;;;;;;3.70;99.90;;;;;;5023687;28;19917;-63